Time;durP1;ratioP1;P1;durP2;ratioP2;P2;SDS_P1;SDS_P2;PMS_P1;PMS_P2;Temp;Humidity;BMP_temperature;BMP_pressure;BME280_temperature;BME280_humidity;BME280_pressure;Samples;Min_cycle;Max_cycle;Signal;HPM_P1;HPM_P2
2023/12/10 00:01:35;;;;;;;40.97;21.43;;;;;;;1.83;100.00;100260.33;1453933;89;22070;-75
2023/12/10 00:04:02;;;;;;;41.60;22.13;;;;;;;1.84;100.00;100255.47;1450223;89;22225;-76
2023/12/10 00:06:28;;;;;;;43.77;22.73;;;;;;;1.84;100.00;100255.47;1443811;89;22057;-76
2023/12/10 00:08:56;;;;;;;41.77;20.90;;;;;;;1.84;100.00;100250.25;1451994;89;22204;-76
2023/12/10 00:11:22;;;;;;;48.30;21.67;;;;;;;1.82;100.00;100243.84;1459383;89;22329;-75
2023/12/10 00:13:49;;;;;;;50.03;25.03;;;;;;;1.82;100.00;100243.84;1451099;89;22124;-75
2023/12/10 00:16:15;;;;;;;38.63;21.10;;;;;;;1.80;100.00;100245.70;1445935;90;22155;-75
2023/12/10 00:18:41;;;;;;;34.90;19.87;;;;;;;1.79;100.00;100247.47;1449723;89;22114;-77
2023/12/10 00:21:14;;;;;;;28.30;18.57;;;;;;;1.82;100.00;100250.36;1441142;89;22279;-77
2023/12/10 00:23:40;;;;;;;26.20;17.43;;;;;;;1.82;100.00;100250.36;1453573;89;23248;-76
2023/12/10 00:26:07;;;;;;;27.43;16.50;;;;;;;1.84;100.00;100238.50;1448138;89;22259;-76
2023/12/10 00:28:33;;;;;;;27.40;17.80;;;;;;;1.80;100.00;100230.03;1458654;89;22082;-77
2023/12/10 00:31:00;;;;;;;27.47;17.50;;;;;;;1.84;100.00;100230.20;1449161;89;22079;-76
2023/12/10 00:33:26;;;;;;;27.97;17.67;;;;;;;1.84;100.00;100234.59;1440649;89;22108;-75
2023/12/10 00:35:52;;;;;;;27.10;16.80;;;;;;;1.82;100.00;100233.87;1454021;90;22208;-77
2023/12/10 00:38:19;;;;;;;27.87;17.73;;;;;;;1.73;100.00;100227.45;1450101;90;22112;-76
2023/12/10 00:40:46;;;;;;;28.10;18.13;;;;;;;1.73;100.00;100227.45;1453168;88;22181;-76
2023/12/10 00:43:14;;;;;;;28.37;17.60;;;;;;;1.75;100.00;100229.01;1449355;90;22006;-76
2023/12/10 00:45:40;;;;;;;25.10;16.40;;;;;;;1.76;100.00;100230.70;1445768;90;22203;-76
2023/12/10 00:48:07;;;;;;;23.97;16.07;;;;;;;1.75;100.00;100229.01;1452056;89;22248;-77
2023/12/10 00:50:33;;;;;;;27.07;17.90;;;;;;;1.75;100.00;100229.01;1450952;89;22288;-76
2023/12/10 00:53:03;;;;;;;26.57;17.20;;;;;;;1.79;100.00;100235.73;1454704;89;22041;-76
2023/12/10 00:55:30;;;;;;;26.23;17.17;;;;;;;1.79;100.00;100240.11;1455469;89;22319;-76
2023/12/10 00:57:56;;;;;;;27.43;17.67;;;;;;;1.75;100.00;100235.53;1455283;89;22106;-76
2023/12/10 01:00:22;;;;;;;28.17;17.60;;;;;;;1.78;100.00;100245.81;1455968;90;22018;-76
2023/12/10 01:02:49;;;;;;;28.63;18.03;;;;;;;1.77;100.00;100242.80;1457628;90;22981;-78
2023/12/10 01:05:16;;;;;;;25.37;16.17;;;;;;;1.80;100.00;100245.22;1453011;90;22241;-77
2023/12/10 01:07:42;;;;;;;25.40;16.20;;;;;;;1.85;100.00;100238.89;1451581;89;22084;-77
2023/12/10 01:10:09;;;;;;;25.03;17.33;;;;;;;1.85;100.00;100238.89;1450428;89;22261;-76
2023/12/10 01:12:37;;;;;;;28.00;18.60;;;;;;;1.82;100.00;100232.09;1453894;89;21766;-76
2023/12/10 01:15:11;;;;;;;30.50;18.00;;;;;;;1.79;100.00;100237.50;1446441;89;22232;-76
2023/12/10 01:17:37;;;;;;;28.10;18.30;;;;;;;1.79;100.00;100237.50;1451819;89;22109;-76
2023/12/10 01:20:05;;;;;;;26.57;18.27;;;;;;;1.80;100.00;100241.31;1454175;90;22078;-76
2023/12/10 01:22:31;;;;;;;27.43;19.03;;;;;;;1.79;100.00;100244.86;1452023;89;22142;-76
2023/12/10 01:24:59;;;;;;;27.50;18.60;;;;;;;1.79;100.00;100228.38;1452316;90;22196;-77
2023/12/10 01:27:26;;;;;;;27.63;18.23;;;;;;;1.79;100.00;100228.38;1466792;89;22017;-77
2023/12/10 01:29:53;;;;;;;29.33;18.27;;;;;;;1.83;100.00;100220.70;1449322;90;23759;-76
2023/12/10 01:32:20;;;;;;;25.63;17.03;;;;;;;1.85;100.00;100216.71;1455669;89;23062;-76
2023/12/10 01:34:47;;;;;;;26.77;18.23;;;;;;;1.86;100.00;100205.33;1452576;89;22755;-77
2023/12/10 01:37:13;;;;;;;25.47;17.63;;;;;;;1.86;100.00;100200.11;1450300;89;22248;-77
2023/12/10 01:39:40;;;;;;;26.73;17.47;;;;;;;1.77;100.00;100182.79;1449687;89;22069;-76
2023/12/10 01:42:06;;;;;;;28.87;18.70;;;;;;;1.77;100.00;100182.79;1453524;89;22223;-77
2023/12/10 01:44:32;;;;;;;27.13;17.90;;;;;;;1.72;100.00;100171.80;1447192;89;22065;-77
2023/12/10 01:46:59;;;;;;;27.30;17.00;;;;;;;1.72;100.00;100171.80;1456555;89;22255;-78
2023/12/10 01:49:28;;;;;;;28.57;18.40;;;;;;;1.73;100.00;100173.49;1453173;89;22259;-76
2023/12/10 01:51:55;;;;;;;26.80;17.67;;;;;;;1.74;100.00;100169.11;1448013;90;23206;-77
2023/12/10 01:54:23;;;;;;;26.13;17.03;;;;;;;1.70;100.00;100158.03;1439853;90;23035;-77
2023/12/10 01:56:50;;;;;;;27.43;18.87;;;;;;;1.74;100.00;100157.37;1449826;89;21935;-76
2023/12/10 01:59:22;;;;;;;31.63;18.73;;;;;;;1.74;100.00;100157.37;1452121;89;21902;-77
2023/12/10 02:01:49;;;;;;;29.57;18.33;;;;;;;1.67;100.00;100175.19;1449703;90;21912;-76
2023/12/10 02:04:16;;;;;;;27.17;18.20;;;;;;;1.66;100.00;100178.72;1445518;90;22080;-77
2023/12/10 02:06:43;;;;;;;25.47;17.27;;;;;;;1.63;100.00;100175.00;1453939;88;22061;-76
2023/12/10 02:09:12;;;;;;;30.93;19.67;;;;;;;1.63;100.00;100167.17;1442147;90;22645;-77
2023/12/10 02:11:37;;;;;;;28.77;18.30;;;;;;;1.63;100.00;100170.25;1453837;89;23444;-76
2023/12/10 02:14:04;;;;;;;27.57;17.37;;;;;;;1.64;100.00;100175.39;1455003;89;22965;-76
2023/12/10 02:16:31;;;;;;;32.37;19.77;;;;;;;1.61;100.00;100162.98;1455060;89;21647;-76
2023/12/10 02:18:57;;;;;;;26.93;18.27;;;;;;;1.61;100.00;100162.98;1453916;90;22050;-77
2023/12/10 02:21:27;;;;;;;28.53;18.03;;;;;;;1.67;100.00;100168.67;1450293;90;22574;-76
2023/12/10 02:24:06;;;;;;;29.63;18.67;;;;;;;1.72;100.00;100172.27;1444959;89;22072;-76
2023/12/10 02:26:33;;;;;;;29.93;18.97;;;;;;;1.77;100.00;100165.83;1460478;89;22064;-76
2023/12/10 02:28:59;;;;;;;28.17;17.50;;;;;;;1.77;100.00;100165.83;1459447;89;23148;-76
2023/12/10 02:31:26;;;;;;;33.20;20.27;;;;;;;1.75;100.00;100149.42;1447629;89;23046;-76
2023/12/10 02:33:53;;;;;;;29.33;18.43;;;;;;;1.75;100.00;100149.42;1454651;89;22088;-77
2023/12/10 02:36:19;;;;;;;27.83;18.07;;;;;;;1.75;100.00;100148.59;1450057;90;22110;-76
2023/12/10 02:38:49;;;;;;;28.60;18.17;;;;;;;1.71;100.00;100146.66;1452502;89;21815;-75
2023/12/10 02:41:16;;;;;;;28.87;17.93;;;;;;;1.69;100.00;100145.08;1451479;90;22954;-75
2023/12/10 02:43:42;;;;;;;27.63;18.33;;;;;;;1.66;100.00;100140.89;1454902;89;22024;-76
2023/12/10 02:46:09;;;;;;;26.20;17.77;;;;;;;1.65;100.00;100140.53;1457869;89;21828;-75
2023/12/10 02:48:35;;;;;;;28.47;19.27;;;;;;;1.64;100.00;100138.00;1449955;90;22251;-76
2023/12/10 02:51:02;;;;;;;26.97;18.13;;;;;;;1.69;100.00;100151.59;1448284;90;22057;-75
2023/12/10 02:53:28;;;;;;;28.03;18.60;;;;;;;1.69;100.00;100136.77;1447487;90;21940;-77
2023/12/10 02:55:57;;;;;;;27.97;17.47;;;;;;;1.69;100.00;100136.77;1456675;90;22094;-77
2023/12/10 02:58:22;;;;;;;27.37;17.80;;;;;;;1.73;100.00;100138.27;1456523;90;22103;-77
2023/12/10 03:00:49;;;;;;;28.00;18.83;;;;;;;1.73;100.00;100138.27;1455992;90;23332;-77
2023/12/10 03:03:15;;;;;;;30.17;18.80;;;;;;;1.73;100.00;100136.97;1453742;89;22278;-76
2023/12/10 03:05:42;;;;;;;32.33;20.63;;;;;;;1.73;100.00;100136.97;1441427;90;21837;-76
2023/12/10 03:08:08;;;;;;;25.47;17.17;;;;;;;1.74;100.00;100123.45;1449366;90;22017;-76
2023/12/10 03:10:35;;;;;;;26.83;18.10;;;;;;;1.74;100.00;100114.59;1439233;90;22748;-77
2023/12/10 03:13:01;;;;;;;25.23;16.70;;;;;;;1.70;100.00;100109.77;1456761;90;23030;-75
2023/12/10 03:15:28;;;;;;;29.23;18.07;;;;;;;1.70;100.00;100109.77;1447266;88;22320;-76
2023/12/10 03:17:54;;;;;;;26.13;18.33;;;;;;;1.75;100.00;100120.72;1447570;90;22072;-76
2023/12/10 03:20:21;;;;;;;30.77;20.10;;;;;;;1.69;100.00;100110.69;1453533;89;22270;-76
2023/12/10 03:22:47;;;;;;;29.03;18.27;;;;;;;1.73;100.00;100127.84;1454718;89;22667;-76
2023/12/10 03:25:13;;;;;;;28.17;18.70;;;;;;;1.70;100.00;100122.81;1441442;89;22878;-77
2023/12/10 03:27:40;;;;;;;28.10;18.27;;;;;;;1.70;100.00;100120.20;1446637;89;22146;-77
2023/12/10 03:30:08;;;;;;;30.30;19.03;;;;;;;1.70;100.00;100120.20;1449030;90;22013;-76
2023/12/10 03:32:35;;;;;;;29.10;17.60;;;;;;;1.64;100.00;100111.91;1455787;89;22302;-76
2023/12/10 03:35:01;;;;;;;27.43;18.87;;;;;;;1.70;100.00;100114.16;1448483;89;22218;-76
2023/12/10 03:37:27;;;;;;;27.30;18.87;;;;;;;1.70;100.00;100114.16;1453572;89;22086;-75
2023/12/10 03:39:54;;;;;;;26.93;17.97;;;;;;;1.65;100.00;100104.00;1447827;89;22057;-76
2023/12/10 03:42:21;;;;;;;29.30;17.83;;;;;;;1.65;100.00;100109.50;1448313;89;22176;-77
2023/12/10 03:44:47;;;;;;;26.77;17.97;;;;;;;1.65;100.00;100101.39;1449758;89;22049;-77
2023/12/10 03:47:14;;;;;;;38.87;21.10;;;;;;;1.65;100.00;100101.39;1458621;89;21814;-77
2023/12/10 03:49:40;;;;;;;38.77;20.47;;;;;;;1.63;100.00;100107.17;1442598;89;22290;-76
2023/12/10 03:52:06;;;;;;;33.10;20.87;;;;;;;1.63;100.00;100103.25;1457542;90;22707;-76
2023/12/10 03:54:33;;;;;;;29.13;18.93;;;;;;;1.63;100.00;100094.59;1451378;89;23235;-77
2023/12/10 03:56:59;;;;;;;33.00;19.73;;;;;;;1.63;100.00;100099.62;1457612;89;22346;-77
2023/12/10 03:59:25;;;;;;;29.30;18.40;;;;;;;1.66;100.00;100099.62;1451859;89;23085;-76
2023/12/10 04:01:52;;;;;;;34.60;19.47;;;;;;;1.68;100.00;100100.36;1445580;90;22227;-77
2023/12/10 04:04:18;;;;;;;25.30;17.30;;;;;;;1.68;100.00;100100.36;1449934;89;22087;-75
2023/12/10 04:06:44;;;;;;;31.67;19.27;;;;;;;1.70;100.00;100081.07;1453052;89;22222;-77
2023/12/10 04:09:11;;;;;;;29.20;18.87;;;;;;;1.74;100.00;100095.58;1453302;90;22072;-77
2023/12/10 04:11:38;;;;;;;28.50;19.13;;;;;;;1.74;100.00;100095.58;1457760;90;22382;-76
2023/12/10 04:14:09;;;;;;;32.30;18.80;;;;;;;1.74;100.00;100087.75;1448746;89;22252;-77
2023/12/10 04:16:37;;;;;;;28.17;19.10;;;;;;;1.69;100.00;100092.42;1455200;89;22191;-76
2023/12/10 04:19:04;;;;;;;31.13;19.97;;;;;;;1.69;100.00;100092.42;1460461;90;21990;-77
2023/12/10 04:21:31;;;;;;;31.60;20.40;;;;;;;1.71;100.00;100094.47;1451047;88;22131;-77
2023/12/10 04:23:58;;;;;;;28.23;18.73;;;;;;;1.71;100.00;100082.73;1458479;89;22088;-77
2023/12/10 04:26:26;;;;;;;31.63;20.17;;;;;;;1.72;100.00;100071.34;1448666;89;22631;-77
2023/12/10 04:28:52;;;;;;;31.97;19.40;;;;;;;1.72;100.00;100066.12;1454813;90;22117;-77
2023/12/10 04:31:19;;;;;;;36.07;23.80;;;;;;;1.78;100.00;100089.24;1454421;89;21948;-77
2023/12/10 04:33:45;;;;;;;33.37;21.83;;;;;;;1.78;100.00;100086.63;1452094;90;23240;-77
2023/12/10 04:36:12;;;;;;;35.53;21.60;;;;;;;1.78;100.00;100086.63;1452122;89;23095;-76
2023/12/10 04:38:38;;;;;;;32.90;21.33;;;;;;;1.73;100.00;100075.66;1445089;89;23059;-77
2023/12/10 04:41:05;;;;;;;39.27;23.10;;;;;;;1.72;100.00;100077.04;1445038;89;22023;-76
2023/12/10 04:43:31;;;;;;;33.67;23.17;;;;;;;1.69;100.00;100070.72;1455232;89;22129;-76
2023/12/10 04:45:58;;;;;;;32.87;21.13;;;;;;;1.69;100.00;100070.72;1454271;90;22245;-78
2023/12/10 04:48:25;;;;;;;34.67;22.63;;;;;;;1.72;100.00;100080.48;1452396;90;22814;-76
2023/12/10 04:50:52;;;;;;;33.07;22.47;;;;;;;1.71;100.00;100074.91;1448554;89;22245;-75
2023/12/10 04:53:18;;;;;;;34.90;23.00;;;;;;;1.77;100.00;100089.33;1459860;90;22067;-77
2023/12/10 04:55:45;;;;;;;33.97;22.17;;;;;;;1.81;100.00;100092.09;1448173;89;22120;-76
2023/12/10 04:58:12;;;;;;;35.93;23.67;;;;;;;1.83;100.00;100090.70;1454651;90;22366;-75
2023/12/10 05:00:38;;;;;;;36.73;22.67;;;;;;;1.83;100.00;100092.84;1457008;90;22278;-76
2023/12/10 05:03:04;;;;;;;33.73;21.17;;;;;;;1.82;100.00;100099.48;1447659;90;22320;-76
2023/12/10 05:05:31;;;;;;;36.63;23.13;;;;;;;1.78;100.00;100088.37;1458822;89;22098;-75
2023/12/10 05:07:57;;;;;;;33.13;21.77;;;;;;;1.78;100.00;100104.03;1452872;89;22254;-75
2023/12/10 05:10:24;;;;;;;39.53;23.50;;;;;;;1.70;100.00;100091.51;1447867;89;22140;-75
2023/12/10 05:12:50;;;;;;;34.40;22.20;;;;;;;1.77;100.00;100099.29;1447699;89;22269;-75
2023/12/10 05:15:17;;;;;;;38.97;23.90;;;;;;;1.77;100.00;100097.98;1447351;90;22149;-77
2023/12/10 05:17:43;;;;;;;36.30;23.03;;;;;;;1.80;100.00;100097.78;1457593;90;22055;-77
2023/12/10 05:20:10;;;;;;;39.13;23.73;;;;;;;1.80;100.00;100097.78;1454562;89;22238;-76
2023/12/10 05:22:37;;;;;;;34.27;22.43;;;;;;;1.87;100.00;100100.85;1452146;90;22129;-77
2023/12/10 05:25:04;;;;;;;39.93;24.30;;;;;;;1.87;100.00;100093.02;1452821;89;22175;-77
2023/12/10 05:27:32;;;;;;;35.90;22.90;;;;;;;1.89;100.00;100102.05;1446598;89;22560;-77
2023/12/10 05:30:00;;;;;;;41.10;25.63;;;;;;;1.83;100.00;100092.01;1451718;89;23160;-77
2023/12/10 05:32:28;;;;;;;39.67;26.03;;;;;;;1.83;100.00;100092.01;1451810;89;22993;-77
2023/12/10 05:34:54;;;;;;;37.77;24.90;;;;;;;1.77;100.00;100090.16;1459558;89;22215;-77
2023/12/10 05:37:20;;;;;;;34.73;23.60;;;;;;;1.76;100.00;100087.19;1452082;89;22025;-77
2023/12/10 05:39:47;;;;;;;36.43;23.13;;;;;;;1.76;100.00;100087.19;1448576;89;22398;-77
2023/12/10 05:42:14;;;;;;;33.23;21.90;;;;;;;1.77;100.00;100084.94;1449547;89;22254;-77
2023/12/10 05:44:40;;;;;;;38.73;23.17;;;;;;;1.79;100.00;100085.69;1455653;89;22303;-78
2023/12/10 05:47:07;;;;;;;38.43;23.20;;;;;;;1.79;100.00;100085.69;1453026;89;22246;-78
2023/12/10 05:49:33;;;;;;;38.57;22.70;;;;;;;1.82;100.00;100086.43;1453391;89;22150;-78
2023/12/10 05:52:00;;;;;;;37.77;22.30;;;;;;;1.80;100.00;100077.38;1453898;89;22165;-78
2023/12/10 05:54:26;;;;;;;36.83;23.10;;;;;;;1.76;100.00;100075.45;1461627;90;22268;-78
2023/12/10 05:56:52;;;;;;;37.20;22.87;;;;;;;1.74;100.00;100074.70;1450136;89;22804;-78
2023/12/10 05:59:19;;;;;;;37.80;25.23;;;;;;;1.76;100.00;100087.66;1445170;90;22062;-79
2023/12/10 06:01:46;;;;;;;40.83;25.13;;;;;;;1.71;100.00;100077.52;1453600;90;22825;-78
2023/12/10 06:04:12;;;;;;;37.57;22.33;;;;;;;1.71;100.00;100077.52;1454237;89;22202;-78
2023/12/10 06:06:38;;;;;;;36.83;23.60;;;;;;;1.74;100.00;100085.14;1450520;90;22114;-77
2023/12/10 06:09:05;;;;;;;43.03;25.50;;;;;;;1.74;100.00;100085.14;1454790;89;22298;-77
2023/12/10 06:11:32;;;;;;;39.50;24.53;;;;;;;1.81;100.00;100094.70;1448742;88;22097;-77
2023/12/10 06:13:58;;;;;;;38.20;23.30;;;;;;;1.81;100.00;100094.70;1447279;89;22025;-78
2023/12/10 06:16:24;;;;;;;36.63;22.93;;;;;;;1.78;100.00;100090.55;1456824;90;22285;-78
2023/12/10 06:18:51;;;;;;;40.80;22.40;;;;;;;1.78;100.00;100090.55;1450127;89;22222;-77
2023/12/10 06:21:17;;;;;;;33.87;21.80;;;;;;;1.82;100.00;100096.88;1447393;89;22034;-77
2023/12/10 06:23:44;;;;;;;37.73;24.53;;;;;;;1.75;100.00;100096.41;1450064;89;22023;-77
2023/12/10 06:26:10;;;;;;;34.77;21.53;;;;;;;1.75;100.00;100096.41;1455235;89;22217;-77
2023/12/10 06:28:36;;;;;;;34.50;20.77;;;;;;;1.73;100.00;100096.52;1446313;90;22319;-78
2023/12/10 06:31:03;;;;;;;33.63;20.93;;;;;;;1.79;100.00;100101.34;1444629;89;22148;-77
2023/12/10 06:33:30;;;;;;;35.87;22.43;;;;;;;1.79;100.00;100104.42;1456377;89;22713;-77
2023/12/10 06:35:57;;;;;;;40.00;23.13;;;;;;;1.82;100.00;100094.26;1451858;89;22099;-78
2023/12/10 06:38:23;;;;;;;33.33;21.60;;;;;;;1.82;100.00;100094.26;1453216;89;22210;-78
2023/12/10 06:40:52;;;;;;;34.63;22.87;;;;;;;1.80;100.00;100100.04;1452034;89;22046;-78
2023/12/10 06:43:18;;;;;;;33.60;22.20;;;;;;;1.79;100.00;100100.04;1456811;89;23650;-78
2023/12/10 06:45:44;;;;;;;38.63;22.70;;;;;;;1.86;100.00;100110.08;1457332;89;21978;-79
2023/12/10 06:48:10;;;;;;;39.67;24.30;;;;;;;1.87;100.00;100111.73;1459609;89;22187;-78
2023/12/10 06:50:37;;;;;;;37.90;24.80;;;;;;;1.88;100.00;100123.87;1457632;89;22113;-78
2023/12/10 06:53:03;;;;;;;38.43;24.03;;;;;;;1.89;100.00;100120.31;1445995;89;22114;-79
2023/12/10 06:55:30;;;;;;;35.40;21.87;;;;;;;1.91;100.00;100126.27;1455202;89;22078;-78
2023/12/10 06:57:56;;;;;;;35.27;21.30;;;;;;;1.91;100.00;100124.50;1460589;89;21994;-78
2023/12/10 07:00:23;;;;;;;33.77;21.47;;;;;;;1.91;100.00;100124.50;1455990;89;22226;-78
2023/12/10 07:02:49;;;;;;;34.73;22.67;;;;;;;1.86;100.00;100120.52;1458873;89;22083;-79
2023/12/10 07:05:16;;;;;;;35.63;23.47;;;;;;;1.93;100.00;100128.33;1453827;89;22032;-79
2023/12/10 07:07:42;;;;;;;38.37;24.80;;;;;;;1.96;100.00;100130.27;1447602;89;22172;-79
2023/12/10 07:10:09;;;;;;;39.63;24.97;;;;;;;1.96;100.00;100130.27;1436686;89;23181;-78
2023/12/10 07:12:36;;;;;;;33.53;21.13;;;;;;;1.96;100.00;100122.44;1450692;89;23099;-79
2023/12/10 07:15:02;;;;;;;32.73;22.33;;;;;;;1.96;100.00;100122.44;1450580;89;22296;-78
2023/12/10 07:17:29;;;;;;;30.77;20.60;;;;;;;2.04;100.00;100129.74;1455651;89;23065;-79
2023/12/10 07:19:55;;;;;;;35.57;24.30;;;;;;;2.07;100.00;100125.63;1451215;89;22219;-78
2023/12/10 07:22:22;;;;;;;31.00;20.57;;;;;;;2.06;100.00;100123.96;1451993;89;22100;-78
2023/12/10 07:24:48;;;;;;;34.57;21.80;;;;;;;2.04;100.00;100121.91;1452128;89;22080;-78
2023/12/10 07:27:14;;;;;;;40.43;25.43;;;;;;;1.99;100.00;100117.48;1446037;89;22774;-79
2023/12/10 07:29:41;;;;;;;44.57;27.17;;;;;;;1.98;100.00;100121.02;1448783;89;22058;-79
2023/12/10 07:32:07;;;;;;;38.53;24.07;;;;;;;1.98;100.00;100121.02;1452069;89;22211;-79
2023/12/10 07:34:34;;;;;;;36.43;23.60;;;;;;;2.02;100.00;100122.50;1455436;89;22099;-79
2023/12/10 07:37:00;;;;;;;34.73;22.70;;;;;;;2.02;100.00;100118.11;1456250;89;22358;-76
2023/12/10 07:39:26;;;;;;;34.47;21.83;;;;;;;2.04;100.00;100118.00;1459879;89;22120;-76
2023/12/10 07:41:53;;;;;;;37.07;23.43;;;;;;;2.08;100.00;100115.56;1448264;89;22120;-75
2023/12/10 07:44:19;;;;;;;33.93;21.50;;;;;;;2.10;100.00;100121.53;1446444;90;22106;-75
2023/12/10 07:46:45;;;;;;;36.80;23.70;;;;;;;2.15;100.00;100119.91;1454098;89;23072;-76
2023/12/10 07:49:12;;;;;;;45.13;26.83;;;;;;;2.18;100.00;100116.62;1412699;89;22986;-75
2023/12/10 07:51:40;;;;;;;36.63;23.23;;;;;;;2.20;100.00;100118.67;1454681;89;22388;-75
2023/12/10 07:54:06;;;;;;;38.37;24.83;;;;;;;2.19;100.00;100120.92;1453325;90;22158;-75
2023/12/10 07:56:33;;;;;;;37.40;22.17;;;;;;;2.15;100.00;100128.57;1454062;89;22092;-76
2023/12/10 07:58:59;;;;;;;32.83;21.00;;;;;;;2.13;100.00;100126.99;1451096;89;23022;-77
2023/12/10 08:01:26;;;;;;;33.57;21.80;;;;;;;2.11;100.00;100131.50;1452784;89;22334;-79
2023/12/10 08:03:52;;;;;;;32.93;21.93;;;;;;;2.11;100.00;100136.25;1449114;89;23006;-77
2023/12/10 08:06:19;;;;;;;36.30;23.67;;;;;;;2.11;100.00;100129.72;1446969;89;22328;-79
2023/12/10 08:08:45;;;;;;;32.37;20.57;;;;;;;2.14;100.00;100137.35;1442346;90;22076;-78
2023/12/10 08:11:12;;;;;;;34.47;21.67;;;;;;;2.18;100.00;100138.81;1457109;90;22295;-79
2023/12/10 08:13:39;;;;;;;32.57;21.37;;;;;;;2.24;100.00;100133.66;1452000;90;22097;-77
2023/12/10 08:16:06;;;;;;;34.70;21.60;;;;;;;2.26;100.00;100124.78;1444014;89;22361;-76
2023/12/10 08:18:33;;;;;;;33.87;22.70;;;;;;;2.32;100.00;100124.02;1443030;89;22210;-77
2023/12/10 08:21:01;;;;;;;33.23;22.10;;;;;;;2.32;100.00;100130.07;1446057;90;22097;-77
2023/12/10 08:23:27;;;;;;;38.67;23.73;;;;;;;2.33;100.00;100137.43;1452544;90;22089;-77
2023/12/10 08:25:53;;;;;;;34.47;21.67;;;;;;;2.35;100.00;100145.53;1457640;89;22596;-77
2023/12/10 08:28:20;;;;;;;34.40;23.80;;;;;;;2.34;100.00;100136.52;1439756;89;22096;-77
2023/12/10 08:30:46;;;;;;;36.93;23.70;;;;;;;2.35;100.00;100136.87;1454237;88;22016;-77
2023/12/10 08:33:13;;;;;;;32.77;22.53;;;;;;;2.35;100.00;100136.87;1454906;89;22261;-77
2023/12/10 08:35:39;;;;;;;36.07;22.73;;;;;;;2.37;100.00;100142.83;1454097;89;22172;-77
2023/12/10 08:38:07;;;;;;;32.03;20.43;;;;;;;2.40;100.00;100142.63;1445275;90;22047;-76
2023/12/10 08:40:33;;;;;;;32.63;21.13;;;;;;;2.43;100.00;100148.95;1448255;89;22748;-75
2023/12/10 08:43:00;;;;;;;44.43;24.83;;;;;;;2.44;100.00;100148.83;1447192;89;22081;-77
2023/12/10 08:45:26;;;;;;;39.57;25.00;;;;;;;2.46;100.00;100147.44;1450333;89;22114;-76
2023/12/10 08:47:53;;;;;;;38.00;22.97;;;;;;;2.47;100.00;100149.10;1444164;90;22274;-77
2023/12/10 08:50:19;;;;;;;38.77;24.17;;;;;;;2.43;100.00;100155.48;1449622;89;22150;-81
2023/12/10 08:52:46;;;;;;;38.83;24.63;;;;;;;2.44;100.00;100152.75;1450748;89;23327;-77
2023/12/10 08:55:12;;;;;;;33.23;21.37;;;;;;;2.44;100.00;100146.70;1450059;89;23023;-77
2023/12/10 08:57:39;;;;;;;43.43;25.93;;;;;;;2.42;100.00;100145.98;1439966;90;22341;-77
2023/12/10 09:00:07;;;;;;;40.67;24.87;;;;;;;2.45;100.00;100148.39;1450646;90;22378;-77
2023/12/10 09:02:33;;;;;;;44.87;27.63;;;;;;;2.47;100.00;100153.88;1383345;88;21981;-77
2023/12/10 09:05:00;;;;;;;50.67;30.20;;;;;;;2.47;100.00;100153.88;1379310;89;22014;-78
2023/12/10 09:07:27;;;;;;;40.30;25.90;;;;;;;2.51;100.00;100151.06;1378344;90;22089;-76
2023/12/10 09:09:59;;;;;;;48.30;26.97;;;;;;;2.48;100.00;100148.19;1382305;90;22009;-77
2023/12/10 09:12:22;;;;;;;52.03;28.93;;;;;;;2.44;100.00;100138.38;1376219;90;22227;-77
2023/12/10 09:14:49;;;;;;;44.63;27.57;;;;;;;2.44;100.00;100137.55;1378980;90;21933;-77
2023/12/10 09:17:15;;;;;;;44.03;26.93;;;;;;;2.44;100.00;100134.47;1390285;89;23109;-77
2023/12/10 09:19:41;;;;;;;43.43;26.93;;;;;;;2.46;100.00;100143.05;1533731;90;22773;-78
2023/12/10 09:22:08;;;;;;;48.40;28.20;;;;;;;2.47;100.00;100147.80;1416942;89;22226;-77
2023/12/10 09:24:35;;;;;;;47.37;26.93;;;;;;;2.48;100.00;100141.17;1452001;89;22320;-78
2023/12/10 09:27:01;;;;;;;49.27;26.83;;;;;;;2.52;100.00;100133.13;1450233;89;22278;-78
2023/12/10 09:29:28;;;;;;;39.40;23.30;;;;;;;2.57;100.00;100134.50;1454192;89;22087;-78
2023/12/10 09:31:55;;;;;;;36.60;22.57;;;;;;;2.62;100.00;100137.64;1452488;89;22426;-77
2023/12/10 09:34:21;;;;;;;42.27;26.67;;;;;;;2.60;100.00;100136.90;1451752;90;22121;-78
2023/12/10 09:36:47;;;;;;;40.90;23.90;;;;;;;2.64;100.00;100140.13;1452727;89;22212;-79
2023/12/10 09:39:14;;;;;;;40.67;24.97;;;;;;;2.63;100.00;100141.91;1451939;89;22085;-78
2023/12/10 09:41:41;;;;;;;47.50;25.23;;;;;;;2.60;100.00;100130.37;1450853;90;22217;-78
2023/12/10 09:44:07;;;;;;;44.33;27.43;;;;;;;2.60;100.00;100130.37;1444429;89;21560;-79
2023/12/10 09:46:34;;;;;;;46.43;28.03;;;;;;;2.63;100.00;100130.63;1453108;89;22035;-79
2023/12/10 09:49:00;;;;;;;37.77;24.47;;;;;;;2.61;100.00;100135.95;1454018;89;22146;-78
2023/12/10 09:51:27;;;;;;;35.20;21.93;;;;;;;2.61;100.00;100137.25;1449618;90;22062;-78
2023/12/10 09:53:54;;;;;;;38.30;22.87;;;;;;;2.62;100.00;100132.41;1449098;90;22053;-78
2023/12/10 09:56:20;;;;;;;41.00;23.10;;;;;;;2.65;100.00;100130.90;1442250;89;22082;-77
2023/12/10 09:58:46;;;;;;;40.00;22.97;;;;;;;2.66;100.00;100131.25;1439923;89;22283;-77
2023/12/10 10:01:13;;;;;;;37.40;22.33;;;;;;;2.73;100.00;100130.83;1462957;89;22920;-79
2023/12/10 10:03:41;;;;;;;35.47;22.57;;;;;;;2.76;100.00;100128.00;1458018;89;22202;-79
2023/12/10 10:06:08;;;;;;;36.10;22.33;;;;;;;2.76;100.00;100130.62;1450454;89;21331;-78
2023/12/10 10:08:34;;;;;;;34.97;23.30;;;;;;;2.77;100.00;100129.70;1450562;88;22266;-79
2023/12/10 10:11:01;;;;;;;33.50;23.20;;;;;;;2.77;100.00;100129.70;1451821;89;22149;-78
2023/12/10 10:13:27;;;;;;;30.00;19.50;;;;;;;2.77;100.00;100129.70;1454296;89;21590;-78
2023/12/10 10:15:54;;;;;;;33.27;22.60;;;;;;;2.74;100.00;100132.52;1449614;89;23025;-77
2023/12/10 10:18:21;;;;;;;39.77;23.07;;;;;;;2.75;100.00;100130.27;1452033;89;22090;-78
2023/12/10 10:20:47;;;;;;;33.63;21.03;;;;;;;2.73;100.00;100123.82;1448736;89;21375;-78
2023/12/10 10:23:14;;;;;;;31.83;20.73;;;;;;;2.78;100.00;100137.89;1452286;89;21613;-77
2023/12/10 10:25:41;;;;;;;40.70;23.73;;;;;;;2.83;100.00;100128.80;1456983;89;22110;-78
2023/12/10 10:28:11;;;;;;;45.17;26.77;;;;;;;2.83;100.00;100128.80;1464663;89;21353;-78
2023/12/10 10:30:36;;;;;;;41.30;24.30;;;;;;;2.89;100.00;100122.31;1453748;89;23366;-78
2023/12/10 10:33:03;;;;;;;37.27;23.13;;;;;;;2.94;100.00;100130.20;1458276;89;22054;-76
2023/12/10 10:35:31;;;;;;;43.87;22.47;;;;;;;2.88;100.00;100125.88;1452359;89;21302;-78
2023/12/10 10:37:58;;;;;;;35.30;21.17;;;;;;;2.88;100.00;100125.88;1448635;89;22277;-77
2023/12/10 10:40:25;;;;;;;37.27;22.67;;;;;;;2.89;100.00;100135.38;1453537;89;22237;-78
2023/12/10 10:42:51;;;;;;;50.77;30.27;;;;;;;2.91;100.00;100132.20;1452484;89;22454;-78
2023/12/10 10:45:18;;;;;;;40.10;24.47;;;;;;;2.93;100.00;100132.47;1449213;89;22544;-78
2023/12/10 10:47:44;;;;;;;41.80;25.63;;;;;;;2.98;100.00;100125.59;1451539;90;23052;-76
2023/12/10 10:50:11;;;;;;;29.23;19.40;;;;;;;3.00;100.00;100123.72;1449920;89;22343;-78
2023/12/10 10:52:39;;;;;;;35.13;22.00;;;;;;;3.03;100.00;100122.20;1450537;89;22455;-78
2023/12/10 10:55:07;;;;;;;35.87;22.53;;;;;;;3.00;100.00;100118.48;1450874;89;21419;-78
2023/12/10 10:57:35;;;;;;;49.83;25.63;;;;;;;3.00;100.00;100118.48;1454308;89;21383;-77
2023/12/10 11:00:25;;;;;;;42.80;24.77;;;;;;;3.06;100.00;100119.36;1448998;89;21516;-77
2023/12/10 11:02:56;;;;;;;40.57;24.20;;;;;;;3.07;100.00;100118.41;1452046;89;21390;-77
2023/12/10 11:05:33;;;;;;;;;;;;;;;3.05;100.00;100112.92;1452845;89;21383;-76
2023/12/10 11:08:00;;;;;;;31.73;20.70;;;;;;;3.11;100.00;100115.96;1453542;89;20344;-76